sensor_id;sensor_type;location;lat;lon;timestamp;temperature;humidity
63966;DHT22;50151;52.030;5.350;2022-08-19T05:42:07;16.70;92.70
63966;DHT22;50151;52.030;5.350;2022-08-19T05:44:37;16.70;92.70
63966;DHT22;50151;52.030;5.350;2022-08-19T05:47:07;16.70;93.30
63966;DHT22;50151;52.030;5.350;2022-08-19T05:49:35;16.80;93.60
63966;DHT22;50151;52.030;5.350;2022-08-19T05:52:05;16.70;93.30
63966;DHT22;50151;52.030;5.350;2022-08-19T05:54:33;16.70;93.10
63966;DHT22;50151;52.030;5.350;2022-08-19T05:57:01;16.80;93.20
63966;DHT22;50151;52.030;5.350;2022-08-19T05:59:28;16.80;93.30
63966;DHT22;50151;52.030;5.350;2022-08-19T06:01:57;16.90;93.20
63966;DHT22;50151;52.030;5.350;2022-08-19T06:04:24;16.90;92.90
63966;DHT22;50151;52.030;5.350;2022-08-19T06:06:53;16.90;93.10
63966;DHT22;50151;52.030;5.350;2022-08-19T06:09:21;17.00;93.30
63966;DHT22;50151;52.030;5.350;2022-08-19T06:11:54;17.00;93.30
63966;DHT22;50151;52.030;5.350;2022-08-19T06:14:25;17.00;93.50
63966;DHT22;50151;52.030;5.350;2022-08-19T06:16:53;17.10;93.80
63966;DHT22;50151;52.030;5.350;2022-08-19T06:19:22;17.20;93.60
63966;DHT22;50151;52.030;5.350;2022-08-19T06:21:51;17.30;93.70
63966;DHT22;50151;52.030;5.350;2022-08-19T06:24:22;17.30;93.80
63966;DHT22;50151;52.030;5.350;2022-08-19T06:26:51;17.40;93.40
63966;DHT22;50151;52.030;5.350;2022-08-19T06:29:24;17.40;93.60
63966;DHT22;50151;52.030;5.350;2022-08-19T06:31:57;17.50;93.80
63966;DHT22;50151;52.030;5.350;2022-08-19T06:34:26;17.50;94.20
63966;DHT22;50151;52.030;5.350;2022-08-19T06:36:56;17.60;94.20
63966;DHT22;50151;52.030;5.350;2022-08-19T06:39:26;17.60;94.10
63966;DHT22;50151;52.030;5.350;2022-08-19T06:41:56;17.70;94.20
63966;DHT22;50151;52.030;5.350;2022-08-19T06:44:27;17.80;94.40
63966;DHT22;50151;52.030;5.350;2022-08-19T06:46:56;17.90;94.60
63966;DHT22;50151;52.030;5.350;2022-08-19T06:49:23;17.90;94.50
63966;DHT22;50151;52.030;5.350;2022-08-19T06:51:51;18.00;95.20
63966;DHT22;50151;52.030;5.350;2022-08-19T06:54:18;18.00;95.40
63966;DHT22;50151;52.030;5.350;2022-08-19T06:56:46;18.00;95.70
63966;DHT22;50151;52.030;5.350;2022-08-19T06:59:17;18.10;95.60
63966;DHT22;50151;52.030;5.350;2022-08-19T07:01:50;18.20;95.40
63966;DHT22;50151;52.030;5.350;2022-08-19T07:04:21;18.20;95.60
63966;DHT22;50151;52.030;5.350;2022-08-19T07:06:50;18.30;95.30
63966;DHT22;50151;52.030;5.350;2022-08-19T07:09:20;18.40;95.10
63966;DHT22;50151;52.030;5.350;2022-08-19T07:11:49;18.50;94.60
63966;DHT22;50151;52.030;5.350;2022-08-19T07:14:23;18.60;94.60
63966;DHT22;50151;52.030;5.350;2022-08-19T07:16:53;18.60;94.00
63966;DHT22;50151;52.030;5.350;2022-08-19T07:19:22;18.70;93.70
63966;DHT22;50151;52.030;5.350;2022-08-19T07:21:51;18.80;93.60
63966;DHT22;50151;52.030;5.350;2022-08-19T07:24:23;18.80;93.30
63966;DHT22;50151;52.030;5.350;2022-08-19T07:26:53;18.80;93.10
63966;DHT22;50151;52.030;5.350;2022-08-19T07:29:21;18.90;92.90
63966;DHT22;50151;52.030;5.350;2022-08-19T07:31:58;18.90;92.10
63966;DHT22;50151;52.030;5.350;2022-08-19T07:34:28;19.00;92.40
63966;DHT22;50151;52.030;5.350;2022-08-19T07:36:56;19.00;91.50
63966;DHT22;50151;52.030;5.350;2022-08-19T07:39:30;19.10;91.70
63966;DHT22;50151;52.030;5.350;2022-08-19T07:41:58;19.10;91.60
63966;DHT22;50151;52.030;5.350;2022-08-19T07:44:26;19.20;91.80
63966;DHT22;50151;52.030;5.350;2022-08-19T07:46:56;19.30;91.40
63966;DHT22;50151;52.030;5.350;2022-08-19T07:49:23;19.20;92.10
63966;DHT22;50151;52.030;5.350;2022-08-19T07:51:55;19.30;91.60
63966;DHT22;50151;52.030;5.350;2022-08-19T07:54:24;19.30;91.00
63966;DHT22;50151;52.030;5.350;2022-08-19T07:56:52;19.40;90.90
63966;DHT22;50151;52.030;5.350;2022-08-19T07:59:20;19.40;90.20
63966;DHT22;50151;52.030;5.350;2022-08-19T08:01:47;19.50;90.00
63966;DHT22;50151;52.030;5.350;2022-08-19T08:04:14;19.50;89.60
63966;DHT22;50151;52.030;5.350;2022-08-19T08:07:00;19.70;89.80
63966;DHT22;50151;52.030;5.350;2022-08-19T08:09:45;19.90;88.80
63966;DHT22;50151;52.030;5.350;2022-08-19T08:12:18;20.00;87.60
63966;DHT22;50151;52.030;5.350;2022-08-19T08:15:04;20.30;87.50
63966;DHT22;50151;52.030;5.350;2022-08-19T08:17:34;20.50;84.70
63966;DHT22;50151;52.030;5.350;2022-08-19T08:20:17;20.50;83.90
63966;DHT22;50151;52.030;5.350;2022-08-19T08:22:46;20.40;83.80
63966;DHT22;50151;52.030;5.350;2022-08-19T08:25:31;20.40;85.00
63966;DHT22;50151;52.030;5.350;2022-08-19T08:28:01;20.40;84.60
63966;DHT22;50151;52.030;5.350;2022-08-19T08:30:29;20.40;85.00
63966;DHT22;50151;52.030;5.350;2022-08-19T08:32:59;20.30;84.20
63966;DHT22;50151;52.030;5.350;2022-08-19T08:35:28;20.30;85.90
63966;DHT22;50151;52.030;5.350;2022-08-19T08:37:55;20.30;84.50
63966;DHT22;50151;52.030;5.350;2022-08-19T08:40:37;20.30;84.80
63966;DHT22;50151;52.030;5.350;2022-08-19T08:51:58;20.70;82.40
63966;DHT22;50151;52.030;5.350;2022-08-19T08:54:34;20.90;82.30
63966;DHT22;50151;52.030;5.350;2022-08-19T08:57:02;21.20;80.70
63966;DHT22;50151;52.030;5.350;2022-08-19T08:59:33;21.00;79.50
63966;DHT22;50151;52.030;5.350;2022-08-19T09:02:01;20.90;79.00
63966;DHT22;50151;52.030;5.350;2022-08-19T09:04:28;21.10;80.00
63966;DHT22;50151;52.030;5.350;2022-08-19T09:10:29;21.10;79.40
63966;DHT22;50151;52.030;5.350;2022-08-19T09:15:39;21.20;79.40
63966;DHT22;50151;52.030;5.350;2022-08-19T09:18:08;21.40;80.00
63966;DHT22;50151;52.030;5.350;2022-08-19T09:20:41;21.50;78.40
63966;DHT22;50151;52.030;5.350;2022-08-19T09:23:08;21.70;78.10
63966;DHT22;50151;52.030;5.350;2022-08-19T09:25:37;22.10;76.90
63966;DHT22;50151;52.030;5.350;2022-08-19T09:28:04;21.90;75.30
63966;DHT22;50151;52.030;5.350;2022-08-19T09:30:41;21.60;76.00
63966;DHT22;50151;52.030;5.350;2022-08-19T09:33:08;21.60;76.30
63966;DHT22;50151;52.030;5.350;2022-08-19T09:35:35;21.90;76.70
63966;DHT22;50151;52.030;5.350;2022-08-19T09:38:18;22.10;74.50
63966;DHT22;50151;52.030;5.350;2022-08-19T09:40:45;22.00;73.40
63966;DHT22;50151;52.030;5.350;2022-08-19T09:43:12;22.00;73.20
63966;DHT22;50151;52.030;5.350;2022-08-19T09:45:39;22.20;73.80
63966;DHT22;50151;52.030;5.350;2022-08-19T09:48:06;22.10;73.60
63966;DHT22;50151;52.030;5.350;2022-08-19T09:50:35;21.90;74.20
63966;DHT22;50151;52.030;5.350;2022-08-19T09:53:18;21.90;74.80
63966;DHT22;50151;52.030;5.350;2022-08-19T09:55:45;22.00;75.60
63966;DHT22;50151;52.030;5.350;2022-08-19T09:58:15;21.80;76.60
63966;DHT22;50151;52.030;5.350;2022-08-19T10:00:44;22.00;77.60
63966;DHT22;50151;52.030;5.350;2022-08-19T10:03:17;22.00;76.20
63966;DHT22;50151;52.030;5.350;2022-08-19T10:05:43;22.00;75.90
63966;DHT22;50151;52.030;5.350;2022-08-19T10:08:32;22.10;75.30
63966;DHT22;50151;52.030;5.350;2022-08-19T10:10:59;22.40;74.30
63966;DHT22;50151;52.030;5.350;2022-08-19T10:13:48;22.40;73.50
63966;DHT22;50151;52.030;5.350;2022-08-19T10:16:18;22.60;72.30
63966;DHT22;50151;52.030;5.350;2022-08-19T10:18:46;22.80;73.00
63966;DHT22;50151;52.030;5.350;2022-08-19T10:21:21;23.10;73.20
63966;DHT22;50151;52.030;5.350;2022-08-19T10:23:54;23.00;72.90
63966;DHT22;50151;52.030;5.350;2022-08-19T10:26:27;23.20;72.40
63966;DHT22;50151;52.030;5.350;2022-08-19T10:28:55;23.40;72.60
63966;DHT22;50151;52.030;5.350;2022-08-19T10:31:25;22.90;73.60
63966;DHT22;50151;52.030;5.350;2022-08-19T10:34:12;23.10;74.40
63966;DHT22;50151;52.030;5.350;2022-08-19T10:36:54;23.00;74.40
63966;DHT22;50151;52.030;5.350;2022-08-19T10:39:26;23.00;74.70
63966;DHT22;50151;52.030;5.350;2022-08-19T10:41:56;23.20;74.50
63966;DHT22;50151;52.030;5.350;2022-08-19T10:44:23;23.30;73.40
63966;DHT22;50151;52.030;5.350;2022-08-19T10:46:57;23.20;73.20
63966;DHT22;50151;52.030;5.350;2022-08-19T10:49:25;23.40;73.10
63966;DHT22;50151;52.030;5.350;2022-08-19T10:51:54;23.30;72.90
63966;DHT22;50151;52.030;5.350;2022-08-19T10:54:44;23.50;73.30
63966;DHT22;50151;52.030;5.350;2022-08-19T10:57:34;23.40;73.00
63966;DHT22;50151;52.030;5.350;2022-08-19T11:00:21;23.20;73.10
63966;DHT22;50151;52.030;5.350;2022-08-19T11:02:50;23.30;74.00
63966;DHT22;50151;52.030;5.350;2022-08-19T11:05:17;23.70;72.80
63966;DHT22;50151;52.030;5.350;2022-08-19T11:07:45;23.60;72.80
63966;DHT22;50151;52.030;5.350;2022-08-19T11:10:13;23.50;72.70
63966;DHT22;50151;52.030;5.350;2022-08-19T11:12:46;23.60;72.20
63966;DHT22;50151;52.030;5.350;2022-08-19T11:15:13;23.80;71.30
63966;DHT22;50151;52.030;5.350;2022-08-19T11:17:41;23.80;72.20
63966;DHT22;50151;52.030;5.350;2022-08-19T11:20:09;24.20;70.60
63966;DHT22;50151;52.030;5.350;2022-08-19T11:22:36;24.20;70.80
63966;DHT22;50151;52.030;5.350;2022-08-19T11:25:09;24.60;70.30
63966;DHT22;50151;52.030;5.350;2022-08-19T11:27:42;24.50;69.70
63966;DHT22;50151;52.030;5.350;2022-08-19T11:30:10;24.70;69.00
63966;DHT22;50151;52.030;5.350;2022-08-19T11:32:40;24.60;69.20
63966;DHT22;50151;52.030;5.350;2022-08-19T11:35:14;24.90;68.90
63966;DHT22;50151;52.030;5.350;2022-08-19T11:37:41;24.70;68.80
63966;DHT22;50151;52.030;5.350;2022-08-19T11:40:08;24.70;68.20
63966;DHT22;50151;52.030;5.350;2022-08-19T11:42:35;25.00;67.50
63966;DHT22;50151;52.030;5.350;2022-08-19T11:45:22;25.00;67.40
63966;DHT22;50151;52.030;5.350;2022-08-19T11:47:48;25.20;66.90
63966;DHT22;50151;52.030;5.350;2022-08-19T11:50:16;24.90;67.10
63966;DHT22;50151;52.030;5.350;2022-08-19T11:52:43;25.10;67.60
63966;DHT22;50151;52.030;5.350;2022-08-19T11:55:12;25.30;67.00
63966;DHT22;50151;52.030;5.350;2022-08-19T11:57:40;25.00;66.20
63966;DHT22;50151;52.030;5.350;2022-08-19T12:00:10;25.30;65.60
63966;DHT22;50151;52.030;5.350;2022-08-19T12:02:40;25.20;66.10
63966;DHT22;50151;52.030;5.350;2022-08-19T12:05:07;24.90;66.80
63966;DHT22;50151;52.030;5.350;2022-08-19T12:07:38;25.30;66.80
63966;DHT22;50151;52.030;5.350;2022-08-19T12:10:08;25.80;65.00
63966;DHT22;50151;52.030;5.350;2022-08-19T12:12:37;25.70;65.10
63966;DHT22;50151;52.030;5.350;2022-08-19T12:15:09;25.40;65.40
63966;DHT22;50151;52.030;5.350;2022-08-19T12:17:37;25.80;65.60
63966;DHT22;50151;52.030;5.350;2022-08-19T12:20:05;26.00;64.80
63966;DHT22;50151;52.030;5.350;2022-08-19T12:22:33;25.70;64.70
63966;DHT22;50151;52.030;5.350;2022-08-19T12:24:59;25.80;64.90
63966;DHT22;50151;52.030;5.350;2022-08-19T12:27:27;25.60;65.50
63966;DHT22;50151;52.030;5.350;2022-08-19T12:30:09;25.20;66.70
63966;DHT22;50151;52.030;5.350;2022-08-19T12:32:37;25.00;66.90
63966;DHT22;50151;52.030;5.350;2022-08-19T12:35:05;25.10;67.60
63966;DHT22;50151;52.030;5.350;2022-08-19T12:37:32;25.10;67.60
63966;DHT22;50151;52.030;5.350;2022-08-19T12:39:59;25.70;67.10
63966;DHT22;50151;52.030;5.350;2022-08-19T12:42:26;25.80;65.60
63966;DHT22;50151;52.030;5.350;2022-08-19T12:44:53;25.70;65.70
63966;DHT22;50151;52.030;5.350;2022-08-19T12:47:20;26.00;64.30
63966;DHT22;50151;52.030;5.350;2022-08-19T12:49:48;25.40;65.40
63966;DHT22;50151;52.030;5.350;2022-08-19T12:52:24;25.70;64.40
63966;DHT22;50151;52.030;5.350;2022-08-19T12:54:55;26.30;63.80
63966;DHT22;50151;52.030;5.350;2022-08-19T12:57:26;25.80;62.40
63966;DHT22;50151;52.030;5.350;2022-08-19T13:00:00;25.40;64.00
63966;DHT22;50151;52.030;5.350;2022-08-19T13:02:30;25.40;65.10
63966;DHT22;50151;52.030;5.350;2022-08-19T13:05:05;25.30;65.90
63966;DHT22;50151;52.030;5.350;2022-08-19T13:07:33;25.20;66.10
63966;DHT22;50151;52.030;5.350;2022-08-19T13:10:00;25.20;65.90
63966;DHT22;50151;52.030;5.350;2022-08-19T13:12:26;25.30;66.30
63966;DHT22;50151;52.030;5.350;2022-08-19T13:14:54;25.40;66.30
63966;DHT22;50151;52.030;5.350;2022-08-19T13:17:21;25.80;65.60
63966;DHT22;50151;52.030;5.350;2022-08-19T13:19:48;25.60;65.20
63966;DHT22;50151;52.030;5.350;2022-08-19T13:22:15;25.40;65.90
63966;DHT22;50151;52.030;5.350;2022-08-19T13:24:42;25.50;66.10
63966;DHT22;50151;52.030;5.350;2022-08-19T13:27:13;25.30;66.20
63966;DHT22;50151;52.030;5.350;2022-08-19T13:29:43;25.20;65.80
63966;DHT22;50151;52.030;5.350;2022-08-19T13:32:29;25.10;66.30
63966;DHT22;50151;52.030;5.350;2022-08-19T13:35:15;24.90;66.20
63966;DHT22;50151;52.030;5.350;2022-08-19T13:37:43;24.90;66.90
63966;DHT22;50151;52.030;5.350;2022-08-19T13:40:18;25.00;67.50
63966;DHT22;50151;52.030;5.350;2022-08-19T13:42:49;24.90;67.20
63966;DHT22;50151;52.030;5.350;2022-08-19T13:45:18;24.90;67.60
63966;DHT22;50151;52.030;5.350;2022-08-19T13:47:47;24.30;72.50
63966;DHT22;50151;52.030;5.350;2022-08-19T13:50:17;23.50;75.30
63966;DHT22;50151;52.030;5.350;2022-08-19T13:52:44;23.30;77.50
63966;DHT22;50151;52.030;5.350;2022-08-19T13:55:12;22.90;78.30
63966;DHT22;50151;52.030;5.350;2022-08-19T13:57:38;22.80;79.00
63966;DHT22;50151;52.030;5.350;2022-08-19T14:00:16;22.60;80.70
63966;DHT22;50151;52.030;5.350;2022-08-19T14:02:46;22.60;82.30
63966;DHT22;50151;52.030;5.350;2022-08-19T14:05:15;22.60;83.00
63966;DHT22;50151;52.030;5.350;2022-08-19T14:07:42;22.90;82.20
63966;DHT22;50151;52.030;5.350;2022-08-19T14:10:11;22.80;84.40
63966;DHT22;50151;52.030;5.350;2022-08-19T14:12:38;22.70;82.70
63966;DHT22;50151;52.030;5.350;2022-08-19T14:15:07;23.00;84.80
63966;DHT22;50151;52.030;5.350;2022-08-19T14:17:38;22.50;83.00
63966;DHT22;50151;52.030;5.350;2022-08-19T14:20:07;22.40;84.20
63966;DHT22;50151;52.030;5.350;2022-08-19T14:22:38;22.30;84.50
63966;DHT22;50151;52.030;5.350;2022-08-19T14:25:09;22.50;85.10
63966;DHT22;50151;52.030;5.350;2022-08-19T14:27:38;22.50;84.70
63966;DHT22;50151;52.030;5.350;2022-08-19T14:30:11;22.30;83.00
63966;DHT22;50151;52.030;5.350;2022-08-19T14:32:38;22.40;85.90
63966;DHT22;50151;52.030;5.350;2022-08-19T14:35:06;22.40;85.00
63966;DHT22;50151;52.030;5.350;2022-08-19T14:37:34;22.40;85.50
63966;DHT22;50151;52.030;5.350;2022-08-19T14:40:16;22.40;84.80
63966;DHT22;50151;52.030;5.350;2022-08-19T14:42:44;22.40;82.80
63966;DHT22;50151;52.030;5.350;2022-08-19T14:45:11;22.40;83.30
63966;DHT22;50151;52.030;5.350;2022-08-19T14:47:38;22.60;85.10
63966;DHT22;50151;52.030;5.350;2022-08-19T14:50:09;22.80;84.80
63966;DHT22;50151;52.030;5.350;2022-08-19T14:52:47;22.80;82.20
63966;DHT22;50151;52.030;5.350;2022-08-19T14:55:17;22.90;82.60
63966;DHT22;50151;52.030;5.350;2022-08-19T14:57:45;22.90;83.80
63966;DHT22;50151;52.030;5.350;2022-08-19T15:00:12;22.80;82.70
63966;DHT22;50151;52.030;5.350;2022-08-19T15:02:41;22.70;83.20
63966;DHT22;50151;52.030;5.350;2022-08-19T15:05:08;22.80;82.80
63966;DHT22;50151;52.030;5.350;2022-08-19T15:07:35;22.70;83.20
63966;DHT22;50151;52.030;5.350;2022-08-19T15:10:03;22.80;83.30
63966;DHT22;50151;52.030;5.350;2022-08-19T15:12:30;23.10;84.60
63966;DHT22;50151;52.030;5.350;2022-08-19T15:14:57;23.20;84.30
63966;DHT22;50151;52.030;5.350;2022-08-19T15:17:23;23.30;81.50
63966;DHT22;50151;52.030;5.350;2022-08-19T15:20:15;23.40;82.50
63966;DHT22;50151;52.030;5.350;2022-08-19T15:22:42;23.40;81.00
63966;DHT22;50151;52.030;5.350;2022-08-19T15:25:11;23.50;82.10
63966;DHT22;50151;52.030;5.350;2022-08-19T15:27:40;23.50;81.60
63966;DHT22;50151;52.030;5.350;2022-08-19T15:30:08;23.40;81.10
63966;DHT22;50151;52.030;5.350;2022-08-19T15:32:36;23.60;81.10
63966;DHT22;50151;52.030;5.350;2022-08-19T15:35:05;23.50;80.80
63966;DHT22;50151;52.030;5.350;2022-08-19T15:37:32;23.70;81.70
63966;DHT22;50151;52.030;5.350;2022-08-19T15:40:04;23.90;84.80
63966;DHT22;50151;52.030;5.350;2022-08-19T15:42:31;23.80;81.60
63966;DHT22;50151;52.030;5.350;2022-08-19T15:44:58;23.80;84.00
63966;DHT22;50151;52.030;5.350;2022-08-19T15:47:28;23.60;83.30
63966;DHT22;50151;52.030;5.350;2022-08-19T15:50:13;23.70;84.20
63966;DHT22;50151;52.030;5.350;2022-08-19T15:52:55;23.60;84.40
63966;DHT22;50151;52.030;5.350;2022-08-19T15:55:26;23.50;84.20
63966;DHT22;50151;52.030;5.350;2022-08-19T15:58:06;23.50;83.60
63966;DHT22;50151;52.030;5.350;2022-08-19T16:00:59;23.50;84.90
63966;DHT22;50151;52.030;5.350;2022-08-19T16:03:47;23.70;83.80
63966;DHT22;50151;52.030;5.350;2022-08-19T16:06:52;23.70;83.10
63966;DHT22;50151;52.030;5.350;2022-08-19T16:09:20;24.00;85.10
63966;DHT22;50151;52.030;5.350;2022-08-19T16:11:54;24.20;83.10
63966;DHT22;50151;52.030;5.350;2022-08-19T16:14:27;24.10;82.90
63966;DHT22;50151;52.030;5.350;2022-08-19T16:16:55;24.10;84.10
63966;DHT22;50151;52.030;5.350;2022-08-19T16:19:23;23.90;84.90
63966;DHT22;50151;52.030;5.350;2022-08-19T16:21:52;23.80;84.80
63966;DHT22;50151;52.030;5.350;2022-08-19T16:24:21;23.80;83.60
63966;DHT22;50151;52.030;5.350;2022-08-19T16:26:49;23.60;81.20
63966;DHT22;50151;52.030;5.350;2022-08-19T16:29:17;23.40;82.70
63966;DHT22;50151;52.030;5.350;2022-08-19T16:32:02;23.40;82.80
63966;DHT22;50151;52.030;5.350;2022-08-19T16:34:30;23.40;83.40
63966;DHT22;50151;52.030;5.350;2022-08-19T16:36:58;23.40;83.20
63966;DHT22;50151;52.030;5.350;2022-08-19T16:39:24;23.40;83.80
63966;DHT22;50151;52.030;5.350;2022-08-19T16:41:51;23.30;84.50
63966;DHT22;50151;52.030;5.350;2022-08-19T16:44:18;23.40;84.60
63966;DHT22;50151;52.030;5.350;2022-08-19T16:46:46;23.50;85.70
63966;DHT22;50151;52.030;5.350;2022-08-19T16:49:25;23.40;83.30
63966;DHT22;50151;52.030;5.350;2022-08-19T16:52:12;23.50;84.20
63966;DHT22;50151;52.030;5.350;2022-08-19T16:54:40;23.50;82.20
63966;DHT22;50151;52.030;5.350;2022-08-19T16:57:10;23.60;83.20
63966;DHT22;50151;52.030;5.350;2022-08-19T16:59:38;23.50;82.70
63966;DHT22;50151;52.030;5.350;2022-08-19T17:02:17;23.50;84.00
63966;DHT22;50151;52.030;5.350;2022-08-19T17:04:44;23.70;84.80
63966;DHT22;50151;52.030;5.350;2022-08-19T17:07:25;23.80;83.60
63966;DHT22;50151;52.030;5.350;2022-08-19T17:09:52;23.70;84.90
63966;DHT22;50151;52.030;5.350;2022-08-19T17:12:20;23.40;81.30
63966;DHT22;50151;52.030;5.350;2022-08-19T17:14:56;23.40;84.20
63966;DHT22;50151;52.030;5.350;2022-08-19T17:17:23;23.40;86.40
63966;DHT22;50151;52.030;5.350;2022-08-19T17:19:54;23.30;85.70
63966;DHT22;50151;52.030;5.350;2022-08-19T17:22:21;23.30;84.40
63966;DHT22;50151;52.030;5.350;2022-08-19T17:24:48;23.30;85.50
63966;DHT22;50151;52.030;5.350;2022-08-19T17:27:14;23.10;85.80
63966;DHT22;50151;52.030;5.350;2022-08-19T17:29:41;23.10;86.70
63966;DHT22;50151;52.030;5.350;2022-08-19T17:32:12;23.20;86.20
63966;DHT22;50151;52.030;5.350;2022-08-19T17:34:39;23.20;86.30
63966;DHT22;50151;52.030;5.350;2022-08-19T17:37:06;23.20;87.10
63966;DHT22;50151;52.030;5.350;2022-08-19T17:39:33;23.10;85.60
63966;DHT22;50151;52.030;5.350;2022-08-19T17:42:05;23.10;85.80
63966;DHT22;50151;52.030;5.350;2022-08-19T17:44:33;23.00;85.90
63966;DHT22;50151;52.030;5.350;2022-08-19T17:47:02;23.10;86.30
63966;DHT22;50151;52.030;5.350;2022-08-19T17:49:30;23.10;85.90
63966;DHT22;50151;52.030;5.350;2022-08-19T17:51:59;23.10;86.60
63966;DHT22;50151;52.030;5.350;2022-08-19T17:54:26;23.10;86.50
63966;DHT22;50151;52.030;5.350;2022-08-19T17:56:59;23.00;86.40
63966;DHT22;50151;52.030;5.350;2022-08-19T17:59:26;23.00;87.30
63966;DHT22;50151;52.030;5.350;2022-08-19T18:01:56;22.90;85.70
63966;DHT22;50151;52.030;5.350;2022-08-19T18:04:24;22.70;83.70
63966;DHT22;50151;52.030;5.350;2022-08-19T18:06:52;22.60;83.80
63966;DHT22;50151;52.030;5.350;2022-08-19T18:09:26;22.40;83.80
63966;DHT22;50151;52.030;5.350;2022-08-19T18:12:09;22.50;85.50
63966;DHT22;50151;52.030;5.350;2022-08-19T18:14:37;22.60;84.00
63966;DHT22;50151;52.030;5.350;2022-08-19T18:17:08;22.40;83.90
63966;DHT22;50151;52.030;5.350;2022-08-19T18:19:37;22.40;84.50
63966;DHT22;50151;52.030;5.350;2022-08-19T18:22:10;22.40;83.90
63966;DHT22;50151;52.030;5.350;2022-08-19T18:24:39;22.40;83.80
63966;DHT22;50151;52.030;5.350;2022-08-19T18:27:05;22.40;84.10
63966;DHT22;50151;52.030;5.350;2022-08-19T18:29:32;22.30;84.30
63966;DHT22;50151;52.030;5.350;2022-08-19T18:31:59;22.20;84.60
63966;DHT22;50151;52.030;5.350;2022-08-19T18:34:26;22.30;84.40
63966;DHT22;50151;52.030;5.350;2022-08-19T18:36:54;22.10;84.70
63966;DHT22;50151;52.030;5.350;2022-08-19T18:39:21;22.20;84.90
63966;DHT22;50151;52.030;5.350;2022-08-19T18:42:14;22.20;84.50
63966;DHT22;50151;52.030;5.350;2022-08-19T18:45:00;22.10;84.90
63966;DHT22;50151;52.030;5.350;2022-08-19T18:47:46;22.10;85.00
63966;DHT22;50151;52.030;5.350;2022-08-19T18:50:36;22.20;85.70
63966;DHT22;50151;52.030;5.350;2022-08-19T18:53:06;22.10;85.20
63966;DHT22;50151;52.030;5.350;2022-08-19T18:55:33;22.10;84.50
63966;DHT22;50151;52.030;5.350;2022-08-19T18:58:00;22.00;84.60
63966;DHT22;50151;52.030;5.350;2022-08-19T19:00:28;21.90;84.00
63966;DHT22;50151;52.030;5.350;2022-08-19T19:02:55;21.90;84.70
63966;DHT22;50151;52.030;5.350;2022-08-19T19:05:22;22.00;85.60
63966;DHT22;50151;52.030;5.350;2022-08-19T19:07:51;22.00;85.60
63966;DHT22;50151;52.030;5.350;2022-08-19T19:10:19;21.90;85.50
63966;DHT22;50151;52.030;5.350;2022-08-19T19:12:46;21.90;85.80
63966;DHT22;50151;52.030;5.350;2022-08-19T19:15:14;21.90;86.50
63966;DHT22;50151;52.030;5.350;2022-08-19T19:17:40;21.90;86.50
63966;DHT22;50151;52.030;5.350;2022-08-19T19:20:07;21.80;86.80
63966;DHT22;50151;52.030;5.350;2022-08-19T19:22:34;21.70;86.80
63966;DHT22;50151;52.030;5.350;2022-08-19T19:25:01;21.60;87.00
63966;DHT22;50151;52.030;5.350;2022-08-19T19:27:28;21.60;87.40
63966;DHT22;50151;52.030;5.350;2022-08-19T19:29:54;21.60;87.70
63966;DHT22;50151;52.030;5.350;2022-08-19T19:32:24;21.60;87.40
63966;DHT22;50151;52.030;5.350;2022-08-19T19:34:52;21.50;88.00
63966;DHT22;50151;52.030;5.350;2022-08-19T19:37:20;21.50;88.70
63966;DHT22;50151;52.030;5.350;2022-08-19T19:39:47;21.40;88.80
63966;DHT22;50151;52.030;5.350;2022-08-19T19:42:16;21.40;88.90
63966;DHT22;50151;52.030;5.350;2022-08-19T19:44:47;21.40;88.90
63966;DHT22;50151;52.030;5.350;2022-08-19T19:47:16;21.20;88.90
63966;DHT22;50151;52.030;5.350;2022-08-19T19:49:47;21.10;89.40
63966;DHT22;50151;52.030;5.350;2022-08-19T19:52:37;21.10;89.80
63966;DHT22;50151;52.030;5.350;2022-08-19T19:55:05;21.10;89.60
63966;DHT22;50151;52.030;5.350;2022-08-19T19:57:32;21.20;89.20
63966;DHT22;50151;52.030;5.350;2022-08-19T19:59:59;21.10;88.80
63966;DHT22;50151;52.030;5.350;2022-08-19T20:02:26;21.10;89.30
63966;DHT22;50151;52.030;5.350;2022-08-19T20:04:53;21.00;88.90
63966;DHT22;50151;52.030;5.350;2022-08-19T20:07:21;21.10;89.00
63966;DHT22;50151;52.030;5.350;2022-08-19T20:10:08;21.10;88.60
63966;DHT22;50151;52.030;5.350;2022-08-19T20:12:35;21.00;88.30
63966;DHT22;50151;52.030;5.350;2022-08-19T20:15:02;21.00;88.50
63966;DHT22;50151;52.030;5.350;2022-08-19T20:17:30;21.00;88.50
63966;DHT22;50151;52.030;5.350;2022-08-19T20:19:57;21.00;88.60
63966;DHT22;50151;52.030;5.350;2022-08-19T20:22:24;20.90;88.30
63966;DHT22;50151;52.030;5.350;2022-08-19T20:24:51;20.90;88.50
63966;DHT22;50151;52.030;5.350;2022-08-19T20:27:19;21.00;89.10
63966;DHT22;50151;52.030;5.350;2022-08-19T20:29:51;20.90;88.70
63966;DHT22;50151;52.030;5.350;2022-08-19T20:32:18;20.90;88.80
63966;DHT22;50151;52.030;5.350;2022-08-19T20:34:45;20.90;89.00
63966;DHT22;50151;52.030;5.350;2022-08-19T20:37:14;20.90;89.30
63966;DHT22;50151;52.030;5.350;2022-08-19T20:39:41;20.80;89.40
63966;DHT22;50151;52.030;5.350;2022-08-19T20:42:08;20.80;90.40
63966;DHT22;50151;52.030;5.350;2022-08-19T20:44:35;20.80;90.50
63966;DHT22;50151;52.030;5.350;2022-08-19T20:47:02;20.80;90.00
63966;DHT22;50151;52.030;5.350;2022-08-19T20:49:31;20.90;90.00
63966;DHT22;50151;52.030;5.350;2022-08-19T20:51:57;20.90;90.20
63966;DHT22;50151;52.030;5.350;2022-08-19T20:54:25;20.90;89.80
63966;DHT22;50151;52.030;5.350;2022-08-19T20:56:52;20.90;90.10
63966;DHT22;50151;52.030;5.350;2022-08-19T20:59:20;20.80;90.30
63966;DHT22;50151;52.030;5.350;2022-08-19T21:01:48;20.80;90.20
